Time;durP1;ratioP1;P1;durP2;ratioP2;P2;SDS_P1;SDS_P2;PMS_P1;PMS_P2;Temp;Humidity;BMP_temperature;BMP_pressure;BME280_temperature;BME280_humidity;BME280_pressure;Samples;Min_cycle;Max_cycle;Signal;HPM_P1;HPM_P2
2021/11/03 00:00:09;;;;;;;28.23;24.27;;;;;21.70;99019.00;;;;2077659;28;20689;-53
2021/11/03 00:01:12;;;;;;;28.02;24.63;;;;;21.70;99019.00;;;;2077900;28;20283;-53
2021/11/03 00:02:12;;;;;;;26.05;23.08;;;;;21.70;99023.00;;;;2075452;28;20238;-56
2021/11/03 00:03:13;;;;;;;27.77;22.90;;;;;21.70;99028.00;;;;2077453;28;20209;-55
2021/11/03 00:04:13;;;;;;;27.23;23.17;;;;;21.70;99017.00;;;;2068919;28;20306;-53
2021/11/03 00:05:14;;;;;;;23.70;21.17;;;;;21.70;99029.00;;;;2068763;28;20215;-56
2021/11/03 00:06:16;;;;;;;27.80;22.90;;;;;21.60;99021.00;;;;2077258;28;20318;-54
2021/11/03 00:07:17;;;;;;;26.08;22.60;;;;;21.60;99023.00;;;;2061364;28;20227;-54
2021/11/03 00:08:22;;;;;;;26.53;22.40;;;;;21.60;99015.00;;;;2069175;28;20218;-53
2021/11/03 00:09:22;;;;;;;24.70;21.77;;;;;21.60;99027.00;;;;2075874;28;20789;-55
2021/11/03 00:10:23;;;;;;;24.50;21.80;;;;;21.60;99024.00;;;;2068613;28;20214;-56
2021/11/03 00:11:24;;;;;;;23.53;20.23;;;;;21.60;99029.00;;;;2076772;28;20259;-53
2021/11/03 00:12:24;;;;;;;22.77;20.20;;;;;21.60;99031.00;;;;2069249;28;20222;-56
2021/11/03 00:13:25;;;;;;;24.50;21.73;;;;;21.60;99022.00;;;;2061353;28;20294;-56
2021/11/03 00:14:25;;;;;;;22.52;19.38;;;;;21.60;99020.00;;;;2069594;28;20226;-53
2021/11/03 00:15:26;;;;;;;22.90;20.50;;;;;21.60;99026.00;;;;2071537;28;21130;-54
2021/11/03 00:16:26;;;;;;;23.07;20.30;;;;;21.60;99030.00;;;;2072208;28;20828;-53
2021/11/03 00:17:27;;;;;;;20.63;18.30;;;;;21.60;99032.00;;;;2071626;28;20300;-54
2021/11/03 00:18:27;;;;;;;21.77;18.13;;;;;21.60;99022.00;;;;2071471;28;20253;-54
2021/11/03 00:19:27;;;;;;;22.10;19.17;;;;;21.60;99033.00;;;;2069893;28;20280;-53
2021/11/03 00:20:28;;;;;;;19.83;17.80;;;;;21.60;99032.00;;;;2070979;28;20733;-54
2021/11/03 00:21:28;;;;;;;23.53;19.77;;;;;21.60;99027.00;;;;2071792;28;20217;-55
2021/11/03 00:22:28;;;;;;;20.90;18.50;;;;;21.60;99024.00;;;;2071785;28;20214;-54
2021/11/03 00:23:29;;;;;;;19.80;17.57;;;;;21.60;99019.00;;;;2078819;28;20291;-55
2021/11/03 00:24:29;;;;;;;20.90;18.40;;;;;21.60;99026.00;;;;2079107;28;20209;-56
2021/11/03 00:25:30;;;;;;;20.13;16.40;;;;;21.60;99019.00;;;;2079631;28;20643;-53
2021/11/03 00:26:30;;;;;;;20.23;17.90;;;;;21.60;99022.00;;;;2079810;28;20291;-54
2021/11/03 00:27:30;;;;;;;21.27;18.53;;;;;21.60;99022.00;;;;2076621;28;20213;-54
2021/11/03 00:28:31;;;;;;;18.83;16.83;;;;;21.60;99016.00;;;;2073816;28;20210;-55
2021/11/03 00:29:31;;;;;;;18.57;16.43;;;;;21.60;99012.00;;;;2070147;28;20214;-54
2021/11/03 00:30:32;;;;;;;22.53;18.80;;;;;21.60;99017.00;;;;2074405;28;20210;-55
2021/11/03 00:31:32;;;;;;;18.75;16.77;;;;;21.60;99015.00;;;;2079334;28;20217;-55
2021/11/03 00:32:33;;;;;;;18.40;16.50;;;;;21.60;99016.00;;;;2079112;28;20669;-54
2021/11/03 00:33:33;;;;;;;19.00;16.93;;;;;21.60;99020.00;;;;2076841;28;20799;-55
2021/11/03 00:34:34;;;;;;;18.80;16.27;;;;;21.40;99018.00;;;;2087046;28;20209;-55
2021/11/03 00:35:34;;;;;;;18.00;16.10;;;;;21.60;99014.00;;;;2074940;28;20267;-54
2021/11/03 00:36:35;;;;;;;17.80;16.00;;;;;21.50;99010.00;;;;2071327;28;20233;-55
2021/11/03 00:37:35;;;;;;;18.43;16.53;;;;;21.50;99009.00;;;;2071673;28;20284;-55
2021/11/03 00:38:35;;;;;;;18.87;16.20;;;;;21.50;99016.00;;;;2071447;28;20218;-55
2021/11/03 00:39:36;;;;;;;17.00;15.20;;;;;21.50;99008.00;;;;2070448;28;20592;-54
2021/11/03 00:40:36;;;;;;;18.00;15.60;;;;;21.50;99008.00;;;;2071528;28;20220;-53
2021/11/03 00:41:37;;;;;;;16.23;14.50;;;;;21.50;99008.00;;;;2079616;28;20221;-53
2021/11/03 00:42:37;;;;;;;18.17;16.27;;;;;21.50;99007.00;;;;2079490;28;20627;-54
2021/11/03 00:43:37;;;;;;;16.17;14.47;;;;;21.50;99009.00;;;;2074592;28;20220;-55
2021/11/03 00:44:38;;;;;;;16.63;14.93;;;;;21.60;99008.00;;;;2072085;28;20210;-55
2021/11/03 00:45:38;;;;;;;15.87;14.20;;;;;21.50;99009.00;;;;2071959;28;20209;-52
2021/11/03 00:46:38;;;;;;;18.37;14.77;;;;;21.50;99016.00;;;;2071698;28;20216;-53
2021/11/03 00:47:39;;;;;;;15.60;13.90;;;;;21.50;99016.00;;;;2071431;28;20280;-53
2021/11/03 00:48:39;;;;;;;15.90;14.27;;;;;21.50;99015.00;;;;2071326;28;20210;-52
2021/11/03 00:49:40;;;;;;;16.30;14.13;;;;;21.50;99017.00;;;;2070454;28;20260;-52
2021/11/03 00:50:40;;;;;;;15.70;14.07;;;;;21.50;99012.00;;;;2071221;28;20231;-55
2021/11/03 00:51:41;;;;;;;17.63;14.90;;;;;21.50;99013.00;;;;2071541;28;20210;-53
2021/11/03 00:52:41;;;;;;;15.33;13.73;;;;;21.50;99018.00;;;;2070651;28;20214;-53
2021/11/03 00:53:42;;;;;;;14.80;13.30;;;;;21.50;99013.00;;;;2071284;28;20210;-55
2021/11/03 00:54:42;;;;;;;14.33;12.83;;;;;21.50;99019.00;;;;2071838;28;20264;-56
2021/11/03 00:55:43;;;;;;;14.47;12.97;;;;;21.50;99020.00;;;;2071102;28;20446;-59
2021/11/03 00:56:43;;;;;;;14.77;12.93;;;;;21.50;99013.00;;;;2071819;28;20217;-53
2021/11/03 00:57:43;;;;;;;14.43;12.93;;;;;21.50;99016.00;;;;2069996;28;20210;-58
2021/11/03 00:58:44;;;;;;;14.00;12.60;;;;;21.50;99013.00;;;;2070206;28;20237;-57
2021/11/03 00:59:44;;;;;;;15.07;12.70;;;;;21.50;99009.00;;;;2075191;28;20571;-58
2021/11/03 01:00:45;;;;;;;13.43;12.13;;;;;21.50;99013.00;;;;2078689;28;20642;-57
2021/11/03 01:01:46;;;;;;;13.80;12.23;;;;;21.50;99011.00;;;;2076138;28;20578;-53
2021/11/03 01:02:47;;;;;;;14.10;12.20;;;;;21.50;99009.00;;;;2078855;28;20456;-55
2021/11/03 01:03:47;;;;;;;12.97;11.67;;;;;21.50;99007.00;;;;2079039;28;20752;-53
2021/11/03 01:04:47;;;;;;;13.07;11.60;;;;;21.50;98998.00;;;;2078858;28;20456;-54
2021/11/03 01:05:48;;;;;;;13.87;12.20;;;;;21.50;98996.00;;;;2078902;28;20241;-54
2021/11/03 01:06:48;;;;;;;13.10;11.70;;;;;21.50;99002.00;;;;2076026;28;20218;-54
2021/11/03 01:07:49;;;;;;;12.77;11.37;;;;;21.50;98993.00;;;;2078443;28;20619;-56
2021/11/03 01:08:49;;;;;;;14.03;12.60;;;;;21.50;98991.00;;;;2077615;28;20220;-55
2021/11/03 01:09:49;;;;;;;13.27;11.97;;;;;21.50;98993.00;;;;2078974;28;20217;-53
2021/11/03 01:10:50;;;;;;;12.13;10.83;;;;;21.50;98988.00;;;;2079085;28;20214;-55
2021/11/03 01:11:51;;;;;;;12.98;11.52;;;;;21.50;98986.00;;;;2079093;28;20285;-55
2021/11/03 01:12:52;;;;;;;11.90;10.80;;;;;21.50;98986.00;;;;2078971;28;20241;-54
2021/11/03 01:13:52;;;;;;;14.13;11.43;;;;;21.50;98980.00;;;;2079083;28;20678;-55
2021/11/03 01:14:53;;;;;;;12.07;10.83;;;;;21.50;98982.00;;;;2075512;28;20460;-56
2021/11/03 01:15:57;;;;;;;12.20;10.90;;;;;21.50;98990.00;;;;2071571;28;20217;-53
2021/11/03 01:16:57;;;;;;;11.63;10.13;;;;;21.50;98988.00;;;;2062219;28;20589;-54
2021/11/03 01:17:58;;;;;;;12.10;10.80;;;;;21.50;98992.00;;;;2081592;28;20217;-54
2021/11/03 01:18:58;;;;;;;12.03;10.23;;;;;21.50;98986.00;;;;2075847;28;20610;-53
2021/11/03 01:19:58;;;;;;;12.60;11.30;;;;;21.40;98984.00;;;;2077021;28;20244;-54
2021/11/03 01:20:59;;;;;;;11.97;10.77;;;;;21.50;98991.00;;;;2077943;28;20225;-54
2021/11/03 01:22:00;;;;;;;10.13;9.17;;;;;21.50;98991.00;;;;2078337;28;20221;-53
2021/11/03 01:23:01;;;;;;;13.35;10.35;;;;;21.40;98986.00;;;;2070419;28;20246;-53
2021/11/03 01:24:01;;;;;;;10.80;9.70;;;;;21.40;98985.00;;;;2077887;28;20201;-55
2021/11/03 01:25:01;;;;;;;11.83;10.60;;;;;21.50;98986.00;;;;2076044;28;20217;-56
2021/11/03 01:26:02;;;;;;;10.73;9.70;;;;;21.50;98984.00;;;;2078339;28;20214;-53
2021/11/03 01:27:02;;;;;;;12.03;10.33;;;;;21.40;98983.00;;;;2072855;28;20643;-55
2021/11/03 01:28:04;;;;;;;10.47;9.37;;;;;21.40;98984.00;;;;2070119;28;20207;-54
2021/11/03 01:29:06;;;;;;;12.45;11.02;;;;;21.40;98985.00;;;;2069510;28;20217;-53
2021/11/03 01:30:08;;;;;;;11.52;10.18;;;;;21.40;98988.00;;;;2070771;28;20220;-53
2021/11/03 01:31:08;;;;;;;10.15;9.15;;;;;21.40;98989.00;;;;2075010;28;20724;-54
2021/11/03 01:32:08;;;;;;;10.07;9.17;;;;;21.40;98993.00;;;;2078344;28;20220;-55
2021/11/03 01:33:09;;;;;;;10.53;9.43;;;;;21.40;99002.00;;;;2078580;28;20237;-55
2021/11/03 01:34:09;;;;;;;10.57;9.53;;;;;21.40;98996.00;;;;2076710;28;20292;-56
2021/11/03 01:35:09;;;;;;;11.47;9.13;;;;;21.40;99002.00;;;;2070784;28;20252;-55
2021/11/03 01:36:11;;;;;;;9.33;8.43;;;;;21.40;98998.00;;;;2070533;28;20644;-54
2021/11/03 01:37:11;;;;;;;10.85;9.13;;;;;21.40;98994.00;;;;2073802;28;22063;-55
2021/11/03 01:38:11;;;;;;;9.63;8.70;;;;;21.40;98999.00;;;;2078740;28;20228;-56
2021/11/03 01:39:12;;;;;;;9.77;8.77;;;;;21.40;98991.00;;;;2077247;28;20214;-56
2021/11/03 01:40:14;;;;;;;10.00;9.00;;;;;21.40;98993.00;;;;2078817;28;20217;-55
2021/11/03 01:41:14;;;;;;;9.55;8.65;;;;;21.40;98998.00;;;;2078425;28;20221;-54
2021/11/03 01:42:15;;;;;;;9.73;8.73;;;;;21.40;98989.00;;;;2075066;28;20650;-56
2021/11/03 01:43:31;;;;;;;9.17;8.27;;;;;21.40;98996.00;;;;2078771;28;20217;-55
2021/11/03 01:44:32;;;;;;;9.65;8.15;;;;;21.40;98991.00;;;;2077529;28;20213;-56
2021/11/03 01:45:32;;;;;;;9.07;7.90;;;;;21.40;98997.00;;;;2071249;28;20210;-56
2021/11/03 01:46:34;;;;;;;11.10;8.90;;;;;21.40;98993.00;;;;2070772;28;20202;-54
2021/11/03 01:47:34;;;;;;;9.52;8.60;;;;;21.40;98994.00;;;;2076725;28;20228;-56
2021/11/03 01:48:34;;;;;;;8.60;7.80;;;;;21.40;98995.00;;;;2071530;28;20221;-54
2021/11/03 01:49:35;;;;;;;9.30;8.37;;;;;21.40;99000.00;;;;2069467;28;20754;-53
2021/11/03 01:50:46;;;;;;;9.20;8.30;;;;;21.40;98991.00;;;;2073818;28;20779;-54
2021/11/03 01:51:48;;;;;;;8.63;7.72;;;;;21.40;98996.00;;;;2061220;28;20264;-53
2021/11/03 01:53:17;;;;;;;9.77;8.80;;;;;21.40;99005.00;;;;2062390;28;20210;-55
2021/11/03 01:54:22;;;;;;;8.02;7.18;;;;;21.40;98995.00;;;;2074948;28;20291;-54
2021/11/03 01:55:23;;;;;;;8.52;7.72;;;;;21.40;98995.00;;;;2078618;28;20213;-54
2021/11/03 01:56:23;;;;;;;9.00;7.67;;;;;21.40;99002.00;;;;2069712;28;21007;-56
2021/11/03 01:57:27;;;;;;;8.80;7.90;;;;;21.40;99002.00;;;;2066355;28;20229;-55
2021/11/03 01:58:38;;;;;;;9.30;7.75;;;;;21.40;98999.00;;;;2061234;28;20222;-56
2021/11/03 01:59:43;;;;;;;10.00;8.55;;;;;21.40;98988.00;;;;2067990;28;20253;-53
2021/11/03 02:00:44;;;;;;;9.82;8.45;;;;;21.40;98997.00;;;;2077751;28;20210;-55
2021/11/03 02:01:45;;;;;;;9.33;7.80;;;;;21.40;98995.00;;;;2076004;28;20279;-56
2021/11/03 02:02:45;;;;;;;9.15;7.80;;;;;21.40;98999.00;;;;2070214;28;20874;-53
2021/11/03 02:03:46;;;;;;;8.87;7.97;;;;;21.40;98996.00;;;;2070646;28;20226;-55
2021/11/03 02:04:46;;;;;;;9.33;8.00;;;;;21.40;98993.00;;;;2061706;28;20230;-56
2021/11/03 02:05:48;;;;;;;8.10;7.10;;;;;21.30;98992.00;;;;2061373;28;20642;-56
2021/11/03 02:06:48;;;;;;;7.97;7.18;;;;;21.30;98989.00;;;;2073782;28;20220;-55
2021/11/03 02:07:49;;;;;;;8.40;7.30;;;;;21.40;98985.00;;;;2078488;28;20308;-56
2021/11/03 02:08:49;;;;;;;8.67;7.80;;;;;21.40;98988.00;;;;2075625;28;20217;-54
2021/11/03 02:09:51;;;;;;;8.63;7.73;;;;;21.40;98986.00;;;;2073306;28;20288;-55
2021/11/03 02:10:51;;;;;;;8.25;7.45;;;;;21.40;98975.00;;;;2072512;28;20221;-55
2021/11/03 02:11:52;;;;;;;8.63;7.30;;;;;21.40;98973.00;;;;2071441;28;20645;-54
2021/11/03 02:12:52;;;;;;;8.10;7.30;;;;;21.40;98976.00;;;;2068105;28;20218;-54
2021/11/03 02:13:53;;;;;;;7.63;6.80;;;;;21.40;98972.00;;;;2070622;28;20214;-54
2021/11/03 02:14:53;;;;;;;8.27;7.47;;;;;21.40;98971.00;;;;2073448;28;20216;-54
2021/11/03 02:15:53;;;;;;;8.03;7.30;;;;;21.40;98969.00;;;;2077730;28;20213;-55
2021/11/03 02:16:54;;;;;;;8.00;7.20;;;;;21.40;98963.00;;;;2072285;28;20218;-55
2021/11/03 02:17:54;;;;;;;6.70;6.10;;;;;21.40;98962.00;;;;2070271;28;20218;-54
2021/11/03 02:18:55;;;;;;;7.83;7.03;;;;;21.40;98967.00;;;;2075729;28;20723;-54
2021/11/03 02:19:56;;;;;;;7.60;6.80;;;;;21.30;98968.00;;;;2069816;28;20631;-54
2021/11/03 02:20:57;;;;;;;7.47;6.77;;;;;21.30;98968.00;;;;2070377;28;20218;-54
2021/11/03 02:22:10;;;;;;;8.60;6.35;;;;;21.30;98969.00;;;;2082860;28;21106;-54
2021/11/03 02:23:29;;;;;;;8.15;7.35;;;;;21.30;98959.00;;;;2066539;28;20218;-53
2021/11/03 02:25:03;;;;;;;7.40;6.60;;;;;21.30;98961.00;;;;2072483;28;20213;-53
2021/11/03 02:26:09;;;;;;;6.82;6.20;;;;;21.30;98961.00;;;;2063096;28;20214;-55
2021/11/03 02:27:10;;;;;;;6.55;5.85;;;;;21.30;98962.00;;;;2070686;28;20222;-55
2021/11/03 02:28:11;;;;;;;7.93;6.60;;;;;21.30;98958.00;;;;2064713;28;20263;-55
2021/11/03 02:29:12;;;;;;;8.13;6.40;;;;;21.30;98955.00;;;;2059745;28;20482;-55
2021/11/03 02:30:14;;;;;;;7.65;6.70;;;;;21.30;98960.00;;;;2070036;28;20210;-54
2021/11/03 02:31:32;;;;;;;6.85;6.25;;;;;21.30;98960.00;;;;2070210;28;20218;-54
2021/11/03 02:32:33;;;;;;;6.70;6.10;;;;;21.30;98957.00;;;;2072427;28;20655;-55
2021/11/03 02:33:34;;;;;;;6.50;5.90;;;;;21.30;98950.00;;;;2078209;28;20222;-54
2021/11/03 02:34:34;;;;;;;6.20;5.60;;;;;21.30;98952.00;;;;2078260;28;20677;-55
2021/11/03 02:35:36;;;;;;;6.80;6.10;;;;;21.30;98958.00;;;;2078028;28;20218;-54
2021/11/03 02:37:00;;;;;;;6.68;6.00;;;;;21.30;98954.00;;;;2077828;28;20509;-55
2021/11/03 02:38:01;;;;;;;6.20;5.60;;;;;21.30;98956.00;;;;2067235;28;20202;-52
2021/11/03 02:39:04;;;;;;;6.13;5.53;;;;;21.30;98946.00;;;;2068838;28;20218;-55
2021/11/03 02:40:29;;;;;;;6.40;5.80;;;;;21.30;98939.00;;;;2068467;28;20229;-55
2021/11/03 02:41:30;;;;;;;6.90;6.05;;;;;21.30;98943.00;;;;2064559;28;20284;-55
2021/11/03 02:42:31;;;;;;;6.33;5.73;;;;;21.30;98933.00;;;;2069593;28;20218;-52
2021/11/03 02:43:40;;;;;;;6.07;5.55;;;;;21.30;98926.00;;;;2077533;28;20293;-55
2021/11/03 02:44:41;;;;;;;6.72;6.03;;;;;21.30;98936.00;;;;2067247;28;20213;-55
2021/11/03 02:45:46;;;;;;;5.73;5.23;;;;;21.30;98934.00;;;;2075622;28;20213;-55
2021/11/03 02:46:46;;;;;;;6.07;5.47;;;;;21.30;98937.00;;;;2069873;28;20280;-55
2021/11/03 02:47:46;;;;;;;6.40;5.37;;;;;21.30;98926.00;;;;2069962;28;20304;-56
2021/11/03 02:48:47;;;;;;;5.57;5.00;;;;;21.30;98932.00;;;;2069183;28;20222;-55
2021/11/03 02:49:47;;;;;;;6.60;5.90;;;;;21.30;98938.00;;;;2069524;28;20211;-54
2021/11/03 02:51:06;;;;;;;6.07;5.33;;;;;21.30;98940.00;;;;2070264;28;20210;-54
2021/11/03 02:52:25;;;;;;;5.63;5.03;;;;;21.30;98942.00;;;;2072186;28;20275;-55
2021/11/03 02:53:26;;;;;;;6.45;5.85;;;;;21.30;98946.00;;;;2078390;28;21033;-55
2021/11/03 02:54:26;;;;;;;6.47;5.73;;;;;21.20;98941.00;;;;2078795;28;20228;-54
2021/11/03 02:55:27;;;;;;;7.53;5.97;;;;;21.30;98948.00;;;;2073992;28;20696;-55
2021/11/03 02:56:28;;;;;;;6.40;5.80;;;;;21.30;98935.00;;;;2071789;28;20563;-54
2021/11/03 02:57:28;;;;;;;6.90;5.80;;;;;21.20;98943.00;;;;2073816;28;20222;-54
2021/11/03 02:58:29;;;;;;;6.20;5.60;;;;;21.30;98939.00;;;;2072187;28;20210;-54
2021/11/03 02:59:29;;;;;;;5.30;4.77;;;;;21.30;98930.00;;;;2068995;28;20718;-55
2021/11/03 03:00:29;;;;;;;6.17;5.57;;;;;21.30;98937.00;;;;2070559;28;20687;-54
2021/11/03 03:01:44;;;;;;;5.43;4.93;;;;;21.30;98936.00;;;;2070397;28;20631;-54
2021/11/03 03:02:44;;;;;;;5.32;4.82;;;;;21.20;98935.00;;;;2067697;28;20686;-55
2021/11/03 03:03:45;;;;;;;6.03;5.53;;;;;21.20;98941.00;;;;2069220;28;20291;-54
2021/11/03 03:04:48;;;;;;;6.17;5.10;;;;;21.20;98929.00;;;;2070033;28;20222;-55
2021/11/03 03:05:56;;;;;;;6.65;5.20;;;;;21.20;98938.00;;;;2061080;28;20466;-54
2021/11/03 03:06:57;;;;;;;5.00;4.60;;;;;21.20;98934.00;;;;2054987;28;20231;-55
2021/11/03 03:07:57;;;;;;;5.20;4.70;;;;;21.20;98930.00;;;;2066833;28;20241;-55
2021/11/03 03:08:58;;;;;;;5.73;5.13;;;;;21.20;98928.00;;;;2071809;28;20218;-55
2021/11/03 03:09:59;;;;;;;5.57;5.07;;;;;21.20;98938.00;;;;2074382;28;20245;-54
2021/11/03 03:11:02;;;;;;;5.20;4.70;;;;;21.20;98939.00;;;;2077745;28;20994;-54
2021/11/03 03:12:04;;;;;;;5.30;4.80;;;;;21.20;98934.00;;;;2077493;28;20252;-54
2021/11/03 03:13:05;;;;;;;5.10;4.60;;;;;21.20;98937.00;;;;2068892;28;20214;-54
2021/11/03 03:14:05;;;;;;;4.83;4.33;;;;;21.20;98936.00;;;;2067469;28;21168;-55
2021/11/03 03:15:06;;;;;;;4.90;4.50;;;;;21.20;98939.00;;;;2069913;28;20781;-55
2021/11/03 03:16:07;;;;;;;5.30;4.40;;;;;21.20;98943.00;;;;2070170;28;20210;-55
2021/11/03 03:17:09;;;;;;;5.30;4.80;;;;;21.20;98949.00;;;;2069568;28;20586;-54
2021/11/03 03:18:09;;;;;;;5.03;4.53;;;;;21.20;98946.00;;;;2069500;28;20210;-53
2021/11/03 03:19:10;;;;;;;4.60;4.20;;;;;21.20;98942.00;;;;2068944;28;20205;-55
2021/11/03 03:20:10;;;;;;;7.30;4.80;;;;;21.20;98936.00;;;;2069439;28;20210;-57
2021/11/03 03:21:11;;;;;;;4.73;4.23;;;;;21.20;98939.00;;;;2069865;28;20264;-55
2021/11/03 03:22:12;;;;;;;4.60;4.20;;;;;21.20;98938.00;;;;2067750;28;20221;-55
2021/11/03 03:23:13;;;;;;;5.05;4.55;;;;;21.20;98940.00;;;;2070350;28;20276;-54
2021/11/03 03:24:14;;;;;;;5.13;4.53;;;;;21.20;98934.00;;;;2070519;28;20820;-54
2021/11/03 03:25:14;;;;;;;4.50;4.00;;;;;21.20;98937.00;;;;2071049;28;20596;-55
2021/11/03 03:26:16;;;;;;;5.07;4.40;;;;;21.20;98943.00;;;;2070614;28;20497;-54
2021/11/03 03:27:17;;;;;;;5.07;4.57;;;;;21.20;98936.00;;;;2073481;28;20272;-55
2021/11/03 03:28:18;;;;;;;4.80;4.40;;;;;21.20;98934.00;;;;2070352;28;20348;-55
2021/11/03 03:29:18;;;;;;;4.70;4.23;;;;;21.20;98933.00;;;;2068941;28;20260;-54
2021/11/03 03:30:19;;;;;;;4.30;3.90;;;;;21.20;98933.00;;;;2070553;28;20210;-55
2021/11/03 03:31:20;;;;;;;4.50;4.10;;;;;21.20;98929.00;;;;2070540;28;20214;-55
2021/11/03 03:32:22;;;;;;;4.70;4.30;;;;;21.20;98937.00;;;;2070260;28;20237;-55
2021/11/03 03:33:23;;;;;;;4.68;4.00;;;;;21.20;98930.00;;;;2074216;28;20209;-55
2021/11/03 03:34:24;;;;;;;4.33;3.93;;;;;21.20;98933.00;;;;2078766;28;20301;-53
2021/11/03 03:35:24;;;;;;;5.30;4.17;;;;;21.20;98930.00;;;;2078703;28;20228;-55
2021/11/03 03:36:25;;;;;;;4.90;4.50;;;;;21.20;98933.00;;;;2078311;28;20283;-54
2021/11/03 03:37:25;;;;;;;4.57;4.17;;;;;21.20;98934.00;;;;2077507;28;20218;-55
2021/11/03 03:38:25;;;;;;;4.60;4.10;;;;;21.20;98938.00;;;;2078728;28;20252;-55
2021/11/03 03:39:26;;;;;;;5.00;4.40;;;;;21.20;98937.00;;;;2077420;28;20312;-55
2021/11/03 03:40:27;;;;;;;4.90;4.50;;;;;21.20;98942.00;;;;2071591;28;20226;-54
2021/11/03 03:41:27;;;;;;;4.60;4.20;;;;;21.10;98933.00;;;;2070479;28;20453;-54
2021/11/03 03:42:28;;;;;;;4.20;3.90;;;;;21.20;98948.00;;;;2070323;28;20249;-55
2021/11/03 03:43:28;;;;;;;4.20;3.60;;;;;21.20;98928.00;;;;2070458;28;20218;-53
2021/11/03 03:44:29;;;;;;;4.93;4.43;;;;;21.20;98941.00;;;;2070264;28;20210;-55
2021/11/03 03:45:29;;;;;;;4.97;4.57;;;;;21.20;98934.00;;;;2070509;28;20477;-53
2021/11/03 03:46:30;;;;;;;4.60;4.17;;;;;21.20;98943.00;;;;2070214;28;20218;-53
2021/11/03 03:47:30;;;;;;;4.03;3.73;;;;;21.10;98942.00;;;;2070261;28;20221;-54
2021/11/03 03:48:30;;;;;;;4.50;4.10;;;;;21.10;98941.00;;;;2070468;28;20229;-53
2021/11/03 03:49:31;;;;;;;4.10;3.70;;;;;21.10;98947.00;;;;2069436;28;20210;-54
2021/11/03 03:50:32;;;;;;;4.30;3.90;;;;;21.10;98943.00;;;;2071105;28;20252;-54
2021/11/03 03:51:32;;;;;;;4.20;3.80;;;;;21.20;98948.00;;;;2072094;28;20296;-53
2021/11/03 03:52:32;;;;;;;4.20;3.80;;;;;21.20;98946.00;;;;2071830;28;20206;-54
2021/11/03 03:53:33;;;;;;;3.83;3.50;;;;;21.20;98953.00;;;;2072207;28;20206;-55
2021/11/03 03:54:33;;;;;;;3.93;3.60;;;;;21.10;98955.00;;;;2071978;28;20206;-53
2021/11/03 03:55:33;;;;;;;4.23;3.83;;;;;21.10;98953.00;;;;2071608;28;20777;-52
2021/11/03 03:56:34;;;;;;;4.47;4.07;;;;;21.10;98951.00;;;;2073732;28;20211;-54
2021/11/03 03:57:34;;;;;;;4.33;3.93;;;;;21.10;98953.00;;;;2075413;28;20284;-53
2021/11/03 03:58:36;;;;;;;4.90;3.90;;;;;21.10;98953.00;;;;2071958;28;20812;-53
2021/11/03 03:59:36;;;;;;;3.80;3.45;;;;;21.10;98952.00;;;;2070695;28;20229;-55
2021/11/03 04:00:36;;;;;;;4.40;4.00;;;;;21.10;98950.00;;;;2071932;28;20669;-55
2021/11/03 04:01:37;;;;;;;4.93;3.70;;;;;21.10;98958.00;;;;2071693;28;20221;-54
2021/11/03 04:02:37;;;;;;;4.40;4.00;;;;;21.10;98951.00;;;;2072061;28;20218;-54
2021/11/03 04:03:38;;;;;;;4.40;4.00;;;;;21.10;98956.00;;;;2072061;28;20296;-54
2021/11/03 04:04:38;;;;;;;3.90;3.50;;;;;21.10;98959.00;;;;2072034;28;20218;-52
2021/11/03 04:05:38;;;;;;;4.30;3.90;;;;;21.10;98956.00;;;;2071898;28;20210;-54
2021/11/03 04:06:39;;;;;;;4.20;3.80;;;;;21.10;98961.00;;;;2071832;28;20713;-53
2021/11/03 04:07:39;;;;;;;4.83;4.03;;;;;21.10;98961.00;;;;2071488;28;20222;-55
2021/11/03 04:08:40;;;;;;;3.90;3.60;;;;;21.10;98968.00;;;;2071719;28;20210;-53
2021/11/03 04:09:40;;;;;;;5.03;3.87;;;;;21.10;98963.00;;;;2070739;28;20214;-54
2021/11/03 04:10:41;;;;;;;4.50;4.10;;;;;21.10;98968.00;;;;2071756;28;20806;-53
2021/11/03 04:11:41;;;;;;;4.27;3.87;;;;;21.10;98972.00;;;;2071681;28;20214;-54
2021/11/03 04:12:42;;;;;;;3.70;3.40;;;;;21.10;98963.00;;;;2072025;28;20217;-54
2021/11/03 04:13:42;;;;;;;4.20;3.80;;;;;21.10;98964.00;;;;2071958;28;20682;-55
2021/11/03 04:14:43;;;;;;;4.43;4.03;;;;;21.10;98968.00;;;;2071312;28;20301;-54
2021/11/03 04:15:43;;;;;;;4.10;3.80;;;;;21.10;98958.00;;;;2071335;28;20221;-53
2021/11/03 04:16:43;;;;;;;3.80;3.50;;;;;21.10;98970.00;;;;2070961;28;20214;-55
2021/11/03 04:17:44;;;;;;;4.40;4.00;;;;;21.10;98971.00;;;;2071510;28;20214;-54
2021/11/03 04:18:44;;;;;;;3.87;3.57;;;;;21.10;98971.00;;;;2070991;28;20592;-53
2021/11/03 04:19:44;;;;;;;3.73;3.43;;;;;21.10;98970.00;;;;2071468;28;20214;-55
2021/11/03 04:20:45;;;;;;;4.30;3.90;;;;;21.10;98971.00;;;;2071842;28;20214;-54
2021/11/03 04:21:45;;;;;;;3.80;3.40;;;;;21.10;98968.00;;;;2071524;28;20314;-55
2021/11/03 04:22:46;;;;;;;4.37;3.97;;;;;21.10;98970.00;;;;2071645;28;20714;-55
2021/11/03 04:23:46;;;;;;;4.53;4.13;;;;;21.10;98974.00;;;;2071713;28;20585;-55
2021/11/03 04:24:47;;;;;;;3.97;3.67;;;;;21.10;98977.00;;;;2071731;28;20218;-53
2021/11/03 04:25:47;;;;;;;3.80;3.47;;;;;21.00;98973.00;;;;2074895;28;20222;-55
2021/11/03 04:26:48;;;;;;;3.90;3.50;;;;;21.10;98985.00;;;;2074791;28;20607;-54
2021/11/03 04:27:48;;;;;;;3.70;3.40;;;;;21.00;98982.00;;;;2074084;28;20304;-53
2021/11/03 04:28:49;;;;;;;4.60;4.20;;;;;21.10;98976.00;;;;2070467;28;20927;-54
2021/11/03 04:29:49;;;;;;;3.47;3.17;;;;;21.10;98971.00;;;;2070776;28;20301;-54
2021/11/03 04:30:49;;;;;;;3.27;2.97;;;;;21.10;98973.00;;;;2070368;28;20206;-54
2021/11/03 04:31:50;;;;;;;3.50;3.20;;;;;21.10;98978.00;;;;2071293;28;20214;-55
2021/11/03 04:32:50;;;;;;;3.47;3.17;;;;;21.10;98968.00;;;;2070227;28;20206;-55
2021/11/03 04:33:51;;;;;;;3.77;3.47;;;;;21.10;98979.00;;;;2071058;28;20218;-52
2021/11/03 04:34:52;;;;;;;3.73;3.43;;;;;21.00;98981.00;;;;2075514;28;20213;-54
2021/11/03 04:35:52;;;;;;;3.57;3.27;;;;;21.10;98975.00;;;;2078309;28;20209;-54
2021/11/03 04:36:53;;;;;;;3.93;3.53;;;;;21.00;98979.00;;;;2070711;28;20280;-54
2021/11/03 04:37:53;;;;;;;4.03;3.73;;;;;21.00;98989.00;;;;2068794;28;20582;-54
2021/11/03 04:38:55;;;;;;;4.10;3.70;;;;;21.00;98987.00;;;;2069691;28;20294;-54
2021/11/03 04:39:55;;;;;;;4.28;3.88;;;;;21.00;98974.00;;;;2070276;28;20300;-54
2021/11/03 04:40:55;;;;;;;4.20;3.80;;;;;21.00;98978.00;;;;2070774;28;20222;-54
2021/11/03 04:41:56;;;;;;;3.90;3.50;;;;;21.00;98985.00;;;;2071682;28;20691;-54
2021/11/03 04:42:56;;;;;;;4.20;3.70;;;;;21.00;98987.00;;;;2070684;28;20725;-54
2021/11/03 04:43:56;;;;;;;4.20;3.80;;;;;21.00;98981.00;;;;2076040;28;20249;-55
2021/11/03 04:44:57;;;;;;;4.00;3.70;;;;;21.00;98988.00;;;;2073772;28;20667;-55
2021/11/03 04:45:57;;;;;;;3.77;3.47;;;;;21.00;98985.00;;;;2072772;28;20245;-54
2021/11/03 04:46:57;;;;;;;3.80;3.50;;;;;21.00;98983.00;;;;2079072;28;20309;-54
2021/11/03 04:47:58;;;;;;;3.70;3.40;;;;;21.00;98978.00;;;;2079146;28;20217;-53
2021/11/03 04:48:58;;;;;;;3.40;3.10;;;;;21.00;98983.00;;;;2078537;28;20236;-53
2021/11/03 04:49:59;;;;;;;3.70;3.40;;;;;21.00;98984.00;;;;2079243;28;20221;-54
2021/11/03 04:50:59;;;;;;;4.37;3.43;;;;;20.90;98980.00;;;;2079509;28;20698;-54
2021/11/03 04:51:59;;;;;;;3.37;3.07;;;;;21.00;98987.00;;;;2079731;28;20221;-55
2021/11/03 04:53:00;;;;;;;3.50;3.20;;;;;21.00;98984.00;;;;2079840;28;20206;-54
2021/11/03 04:54:00;;;;;;;6.00;3.83;;;;;21.00;98994.00;;;;2077653;28;20218;-54
2021/11/03 04:55:01;;;;;;;4.73;3.40;;;;;21.00;98986.00;;;;2070597;28;20218;-54
2021/11/03 04:56:03;;;;;;;3.90;3.50;;;;;21.00;98987.00;;;;2076936;28;20678;-55
2021/11/03 04:57:03;;;;;;;3.80;3.45;;;;;21.00;98992.00;;;;2076296;28;20218;-55
2021/11/03 04:58:04;;;;;;;3.90;3.57;;;;;21.00;98984.00;;;;2074015;28;20566;-54
2021/11/03 04:59:04;;;;;;;3.67;3.23;;;;;21.00;98988.00;;;;2070121;28;20889;-54
2021/11/03 05:00:10;;;;;;;3.47;3.17;;;;;21.00;98984.00;;;;2071175;28;20590;-55
2021/11/03 05:01:10;;;;;;;3.50;3.20;;;;;21.00;98979.00;;;;2070700;28;20686;-54
2021/11/03 05:02:11;;;;;;;4.10;3.70;;;;;21.00;98975.00;;;;2071504;28;20302;-52
2021/11/03 05:03:13;;;;;;;3.92;3.53;;;;;21.00;98969.00;;;;2071046;28;20214;-53
2021/11/03 05:04:13;;;;;;;3.45;3.15;;;;;21.00;98972.00;;;;2071334;28;20562;-54
2021/11/03 05:05:14;;;;;;;3.63;3.33;;;;;21.00;98970.00;;;;2071208;28;20233;-55